createdAt,value
2022-10-05T00:02:19.672Z,58.96
2022-10-05T00:04:49.560Z,58.76
2022-10-05T00:07:21.211Z,59.11
2022-10-05T00:09:54.815Z,59.17
2022-10-05T00:12:26.788Z,59.23
2022-10-05T00:15:00.651Z,59.29
2022-10-05T00:17:31.385Z,59.36
2022-10-05T00:20:01.087Z,59.93
2022-10-05T00:22:31.547Z,59.66
2022-10-05T00:25:02.059Z,59.37
2022-10-05T00:27:34.174Z,59.93
2022-10-05T00:30:11.781Z,59.96
2022-10-05T00:32:41.324Z,60.25
2022-10-05T00:35:11.279Z,60.23
2022-10-05T00:37:41.092Z,60.50
2022-10-05T00:40:15.874Z,60.54
2022-10-05T00:42:52.786Z,59.82
2022-10-05T00:45:24.743Z,60.86
2022-10-05T00:48:01.331Z,61.19
2022-10-05T00:50:57.787Z,61.13
2022-10-05T00:53:34.250Z,60.95
2022-10-05T00:56:05.799Z,61.22
2022-10-05T00:58:44.960Z,61.24
2022-10-05T01:01:15.879Z,61.32
2022-10-05T01:03:52.278Z,61.80
2022-10-05T01:06:25.832Z,61.23
2022-10-05T01:08:59.527Z,60.92
2022-10-05T01:11:31.120Z,61.24
2022-10-05T01:14:04.658Z,60.94
2022-10-05T01:16:37.165Z,61.54
2022-10-05T01:19:16.886Z,61.53
2022-10-05T01:21:48.955Z,61.56
2022-10-05T01:24:36.542Z,61.86
2022-10-05T01:27:12.643Z,61.81
2022-10-05T01:29:45.743Z,62.27
2022-10-05T01:32:20.435Z,62.53
2022-10-05T01:34:54.370Z,61.89
2022-10-05T01:37:28.034Z,62.22
2022-10-05T01:40:01.587Z,62.30
2022-10-05T01:42:36.611Z,61.98
2022-10-05T01:45:10.726Z,62.06
2022-10-05T01:47:43.928Z,61.86
2022-10-05T01:50:18.779Z,62.34
2022-10-05T01:52:52.961Z,61.99
2022-10-05T01:55:29.452Z,62.46
2022-10-05T01:58:07.176Z,62.89
2022-10-05T02:00:41.685Z,62.44
2022-10-05T02:03:15.162Z,63.39
2022-10-05T02:05:48.070Z,62.64
2022-10-05T02:08:22.299Z,63.19
2022-10-05T02:10:54.028Z,62.25
2022-10-05T02:13:26.628Z,62.67
2022-10-05T02:16:01.645Z,62.41
2022-10-05T02:18:33.522Z,62.72
2022-10-05T02:21:04.125Z,63.05
2022-10-05T02:23:34.827Z,62.84
2022-10-05T02:26:05.847Z,63.23
2022-10-05T02:28:37.890Z,63.84
2022-10-05T02:31:11.510Z,62.94
2022-10-05T02:33:41.514Z,63.28
2022-10-05T02:36:14.179Z,63.63
2022-10-05T02:38:50.771Z,64.84
2022-10-05T02:41:27.066Z,64.01
2022-10-05T02:44:00.830Z,65.04
2022-10-05T02:46:36.847Z,64.87
2022-10-05T02:49:13.016Z,63.62
2022-10-05T02:51:47.095Z,64.51
2022-10-05T02:54:22.192Z,64.13
2022-10-05T02:56:57.153Z,64.22
2022-10-05T02:59:31.140Z,64.55
2022-10-05T03:02:05.802Z,64.87
2022-10-05T03:04:40.582Z,64.20
2022-10-05T03:07:15.371Z,63.75
2022-10-05T03:09:49.252Z,64.20
2022-10-05T03:12:25.280Z,64.14
2022-10-05T03:15:01.864Z,65.02
2022-10-05T03:17:36.138Z,65.50
2022-10-05T03:20:15.361Z,64.28
2022-10-05T03:22:52.070Z,64.08
2022-10-05T03:25:33.400Z,64.36
2022-10-05T03:28:07.525Z,64.37
2022-10-05T03:30:43.609Z,64.28
2022-10-05T03:33:17.896Z,64.61
2022-10-05T03:35:51.599Z,64.39
2022-10-05T03:38:26.893Z,65.17
2022-10-05T03:41:00.091Z,64.80
2022-10-05T03:43:44.324Z,64.82
2022-10-05T03:46:15.094Z,65.45
2022-10-05T03:48:49.792Z,65.44
2022-10-05T03:51:23.512Z,65.07
2022-10-05T03:53:55.810Z,65.03
2022-10-05T03:56:31.168Z,64.82
2022-10-05T03:59:03.540Z,64.97
2022-10-05T04:01:37.136Z,64.35
2022-10-05T04:04:12.414Z,65.40
2022-10-05T04:06:44.784Z,65.98
2022-10-05T04:09:16.546Z,66.07
2022-10-05T04:11:50.191Z,65.99
2022-10-05T04:14:22.787Z,66.12
2022-10-05T04:16:56.221Z,65.62
2022-10-05T04:19:32.311Z,65.79
2022-10-05T04:22:05.847Z,66.38
2022-10-05T04:24:37.719Z,65.80
2022-10-05T04:27:11.143Z,65.73
2022-10-05T04:29:43.198Z,65.40
2022-10-05T04:32:31.306Z,65.89
2022-10-05T04:35:11.838Z,65.74
2022-10-05T04:37:54.572Z,65.65
2022-10-05T04:40:31.963Z,65.59
2022-10-05T04:43:06.221Z,65.55
2022-10-05T04:45:43.125Z,65.19
2022-10-05T04:48:20.516Z,65.37
2022-10-05T04:50:58.531Z,66.49
2022-10-05T04:53:32.227Z,64.99
2022-10-05T04:56:07.973Z,65.43
2022-10-05T04:58:56.645Z,65.01
2022-10-05T05:01:37.806Z,64.40
2022-10-05T05:04:15.827Z,65.06
2022-10-05T05:06:50.363Z,64.77
2022-10-05T05:09:27.801Z,64.97
2022-10-05T05:12:05.068Z,63.66
2022-10-05T05:14:49.902Z,64.05
2022-10-05T05:17:26.519Z,63.77
2022-10-05T05:20:00.914Z,63.88
2022-10-05T05:22:37.537Z,63.78
2022-10-05T05:25:20.205Z,63.37
2022-10-05T05:27:53.533Z,63.55
2022-10-05T05:30:24.066Z,62.91
2022-10-05T05:33:05.805Z,62.60
2022-10-05T05:35:42.333Z,62.42
2022-10-05T05:38:20.921Z,62.22
2022-10-05T05:40:55.777Z,62.43
2022-10-05T05:43:26.921Z,61.85
2022-10-05T05:45:59.877Z,62.01
2022-10-05T05:48:33.299Z,62.18
2022-10-05T05:51:05.283Z,61.80
2022-10-05T05:53:38.706Z,62.17
2022-10-05T05:56:11.386Z,62.61
2022-10-05T05:58:44.705Z,62.14
2022-10-05T06:01:32.137Z,62.61
2022-10-05T06:04:04.825Z,62.14
2022-10-05T06:06:37.373Z,62.38
2022-10-05T06:09:15.803Z,61.97
2022-10-05T06:11:47.976Z,62.03
2022-10-05T06:14:21.932Z,61.58
2022-10-05T06:16:55.441Z,61.67
2022-10-05T06:19:26.870Z,61.18
2022-10-05T06:21:59.438Z,61.18
2022-10-05T06:24:33.665Z,60.96
2022-10-05T06:27:13.612Z,60.78
2022-10-05T06:29:51.420Z,60.31
2022-10-05T06:32:25.689Z,59.51
2022-10-05T06:34:59.096Z,59.62
2022-10-05T06:37:36.115Z,59.13
2022-10-05T06:40:12.555Z,58.73
2022-10-05T06:42:51.096Z,58.41
2022-10-05T06:45:25.994Z,58.04
2022-10-05T06:48:04.294Z,57.51
2022-10-05T06:50:38.072Z,57.64
2022-10-05T06:53:14.031Z,57.03
2022-10-05T06:55:50.692Z,56.79
2022-10-05T06:58:37.496Z,56.23
2022-10-05T07:01:11.359Z,55.97
2022-10-05T07:03:47.044Z,56.03
2022-10-05T07:06:17.590Z,55.93
2022-10-05T07:08:53.924Z,55.86
2022-10-05T07:11:35.099Z,55.52
2022-10-05T07:14:12.372Z,55.39
2022-10-05T07:16:48.669Z,55.46
2022-10-05T07:19:23.542Z,54.85
2022-10-05T07:22:01.812Z,54.25
2022-10-05T07:24:33.479Z,53.93
2022-10-05T07:27:08.304Z,53.85
2022-10-05T07:29:40.724Z,53.56
2022-10-05T07:32:15.566Z,53.52
2022-10-05T07:34:50.307Z,52.88
2022-10-05T07:37:39.385Z,52.88
2022-10-05T07:40:13.002Z,52.86
2022-10-05T07:42:52.884Z,52.49
2022-10-05T07:45:28.104Z,52.29
2022-10-05T07:47:58.483Z,52.46
2022-10-05T07:50:31.260Z,52.10
2022-10-05T07:53:03.784Z,51.99
2022-10-05T07:55:36.039Z,51.48
2022-10-05T07:58:13.510Z,51.50
2022-10-05T08:00:46.680Z,51.08
2022-10-05T08:03:22.231Z,51.45
2022-10-05T08:05:51.899Z,51.26
2022-10-05T08:08:25.471Z,50.69
2022-10-05T08:10:59.258Z,50.40
2022-10-05T08:13:35.573Z,49.74
2022-10-05T08:16:12.644Z,50.38
2022-10-05T08:18:48.505Z,49.04
2022-10-05T08:21:22.086Z,49.44
2022-10-05T08:23:54.186Z,48.91
2022-10-05T08:26:29.756Z,47.11
2022-10-05T08:29:10.250Z,48.23
2022-10-05T08:31:44.454Z,48.81
2022-10-05T08:34:22.090Z,47.97
2022-10-05T08:36:56.146Z,48.03
2022-10-05T08:39:27.713Z,47.80
2022-10-05T08:42:16.012Z,47.60
2022-10-05T08:45:01.899Z,47.90
2022-10-05T08:47:42.374Z,47.22
2022-10-05T08:50:19.686Z,47.22
2022-10-05T08:53:02.668Z,46.98
2022-10-05T08:55:44.704Z,47.32
2022-10-05T08:58:32.757Z,47.30
2022-10-05T09:01:06.318Z,46.79
2022-10-05T09:03:52.266Z,45.83
2022-10-05T09:06:39.416Z,46.34
2022-10-05T09:09:26.365Z,46.10
2022-10-05T09:12:02.519Z,46.08
2022-10-05T09:14:38.975Z,46.12
2022-10-05T09:17:18.516Z,46.55
2022-10-05T09:19:54.411Z,46.15
2022-10-05T09:22:38.405Z,46.14
2022-10-05T09:25:19.235Z,45.45
2022-10-05T09:27:53.120Z,46.00
2022-10-05T09:30:28.160Z,46.05
2022-10-05T09:33:13.546Z,44.37
2022-10-05T09:36:04.063Z,44.29
2022-10-05T09:38:44.803Z,43.44
2022-10-05T09:41:32.608Z,44.14
2022-10-05T09:44:18.818Z,44.66
2022-10-05T09:46:58.724Z,44.30
2022-10-05T09:49:49.652Z,43.96
2022-10-05T09:52:29.098Z,44.06
2022-10-05T09:55:14.449Z,43.61
2022-10-05T09:58:03.679Z,43.13
2022-10-05T10:00:54.211Z,43.84
2022-10-05T10:03:57.187Z,43.21
2022-10-05T10:06:37.906Z,43.33
2022-10-05T10:09:17.395Z,43.53
2022-10-05T10:11:55.802Z,43.85
2022-10-05T10:14:57.249Z,43.04
2022-10-05T10:17:37.955Z,43.48
2022-10-05T10:20:19.634Z,42.27
2022-10-05T10:23:04.107Z,42.56
2022-10-05T10:25:41.021Z,43.02
2022-10-05T10:28:34.422Z,42.77
2022-10-05T10:31:19.550Z,42.80
2022-10-05T10:34:02.887Z,43.88
2022-10-05T10:36:44.456Z,42.90
2022-10-05T10:39:21.064Z,42.79
2022-10-05T10:42:05.878Z,42.88
2022-10-05T10:44:56.349Z,42.11
2022-10-05T10:47:36.001Z,42.51
2022-10-05T10:50:23.353Z,42.32
2022-10-05T10:53:01.862Z,41.92
2022-10-05T10:55:39.885Z,42.89
2022-10-05T10:58:33.405Z,42.47
2022-10-05T11:01:12.072Z,43.11
2022-10-05T11:03:57.763Z,41.80
2022-10-05T11:06:33.982Z,41.26
2022-10-05T11:09:21.981Z,40.57
2022-10-05T11:12:08.331Z,40.94
2022-10-05T11:14:55.367Z,40.25
2022-10-05T11:17:45.861Z,40.88
2022-10-05T11:20:26.001Z,39.83
2022-10-05T11:22:59.904Z,39.93
2022-10-05T11:25:48.065Z,40.36
2022-10-05T11:28:36.334Z,40.20
2022-10-05T11:31:20.849Z,40.53
2022-10-05T11:34:08.342Z,41.01
2022-10-05T11:36:55.782Z,40.46
2022-10-05T11:39:33.249Z,39.37
2022-10-05T11:42:17.095Z,39.41
2022-10-05T11:45:01.692Z,39.58
2022-10-05T11:47:34.964Z,39.22
2022-10-05T11:50:11.710Z,40.03
2022-10-05T11:52:44.933Z,39.83
2022-10-05T11:55:19.314Z,39.39
2022-10-05T11:57:53.459Z,38.83
2022-10-05T12:00:24.254Z,39.83
2022-10-05T12:03:01.396Z,39.25
2022-10-05T12:05:35.147Z,39.64
2022-10-05T12:08:20.127Z,38.39
2022-10-05T12:10:56.005Z,38.88
2022-10-05T12:13:34.136Z,39.68
2022-10-05T12:16:06.817Z,39.74
2022-10-05T12:18:46.780Z,38.78
2022-10-05T12:21:20.565Z,38.04
2022-10-05T12:23:52.590Z,38.29
2022-10-05T12:26:24.552Z,38.42
2022-10-05T12:28:57.056Z,39.46
2022-10-05T12:31:41.617Z,39.98
2022-10-05T12:34:19.278Z,39.43
2022-10-05T12:37:04.213Z,38.14
2022-10-05T12:39:53.244Z,38.28
2022-10-05T12:42:29.730Z,38.06
2022-10-05T12:45:05.960Z,38.35
2022-10-05T12:47:42.147Z,37.85
2022-10-05T12:50:17.869Z,37.00
2022-10-05T12:52:57.122Z,36.18
2022-10-05T12:55:29.306Z,35.92
2022-10-05T12:58:06.460Z,36.84
2022-10-05T13:00:40.391Z,37.55
2022-10-05T13:03:14.528Z,37.18
2022-10-05T13:05:50.650Z,37.69
2022-10-05T13:08:26.496Z,36.35
2022-10-05T13:11:02.173Z,37.07
2022-10-05T13:13:38.079Z,37.47
2022-10-05T13:16:16.790Z,37.88
2022-10-05T13:18:56.257Z,36.44
2022-10-05T13:21:33.502Z,37.22
2022-10-05T13:24:05.385Z,37.29
2022-10-05T13:26:36.804Z,36.90
2022-10-05T13:29:14.787Z,36.82
2022-10-05T13:31:46.790Z,37.15
2022-10-05T13:34:22.643Z,36.84
2022-10-05T13:37:00.555Z,36.19
2022-10-05T13:39:40.247Z,35.68
2022-10-05T13:42:12.303Z,35.00
2022-10-05T13:44:45.209Z,35.74
2022-10-05T13:47:19.277Z,36.25
2022-10-05T13:49:51.978Z,36.22
2022-10-05T13:52:27.887Z,35.90
2022-10-05T13:55:01.659Z,36.60
2022-10-05T13:57:45.072Z,35.92
2022-10-05T14:00:19.455Z,35.99
2022-10-05T14:02:51.970Z,35.34
2022-10-05T14:05:22.943Z,35.66
2022-10-05T14:07:55.566Z,35.00
2022-10-05T14:10:38.606Z,35.83
2022-10-05T14:13:20.606Z,36.87
2022-10-05T14:15:59.669Z,36.49
2022-10-05T14:18:31.774Z,36.59
2022-10-05T14:21:03.100Z,36.13
2022-10-05T14:23:33.963Z,35.86
2022-10-05T14:26:04.463Z,36.32
2022-10-05T14:28:34.972Z,36.90
2022-10-05T14:31:07.357Z,36.89
2022-10-05T14:33:37.002Z,36.85
2022-10-05T14:36:12.896Z,35.90
2022-10-05T14:38:56.923Z,36.72
2022-10-05T14:41:27.682Z,36.73
2022-10-05T14:44:02.094Z,36.95
2022-10-05T14:46:33.171Z,37.04
2022-10-05T14:49:21.485Z,37.50
2022-10-05T14:51:51.726Z,36.03
2022-10-05T14:54:30.099Z,35.21
2022-10-05T14:57:05.135Z,35.76
2022-10-05T14:59:49.491Z,35.34
2022-10-05T15:02:28.324Z,35.70
2022-10-05T15:05:01.655Z,36.94
2022-10-05T15:07:36.166Z,37.09
2022-10-05T15:10:27.052Z,35.68
2022-10-05T15:12:59.966Z,36.43
2022-10-05T15:15:34.890Z,36.72
2022-10-05T15:18:07.161Z,36.49
2022-10-05T15:20:43.385Z,36.97
2022-10-05T15:23:24.882Z,37.44
2022-10-05T15:26:02.531Z,37.79
2022-10-05T15:28:34.969Z,38.24
2022-10-05T15:31:06.809Z,37.71
2022-10-05T15:33:45.783Z,38.32
2022-10-05T15:36:19.828Z,38.43
2022-10-05T15:39:00.245Z,39.50
2022-10-05T15:41:41.829Z,39.96
2022-10-05T15:44:19.497Z,40.07
2022-10-05T15:46:58.215Z,40.37
2022-10-05T15:49:34.416Z,40.25
2022-10-05T15:52:06.563Z,40.34
2022-10-05T15:54:55.906Z,40.46
2022-10-05T15:57:34.653Z,40.96
2022-10-05T16:00:10.321Z,41.36
2022-10-05T16:02:42.857Z,41.64
2022-10-05T16:05:41.671Z,42.13
2022-10-05T16:08:35.093Z,42.30
2022-10-05T16:11:08.961Z,42.82
2022-10-05T16:13:45.571Z,43.00
2022-10-05T16:16:21.991Z,42.96
2022-10-05T16:18:56.223Z,43.39
2022-10-05T16:21:30.744Z,43.52
2022-10-05T16:24:05.839Z,43.70
2022-10-05T16:26:42.448Z,43.63
2022-10-05T16:29:15.780Z,44.07
2022-10-05T16:31:49.135Z,43.96
2022-10-05T16:34:23.277Z,43.83
2022-10-05T16:36:58.682Z,44.09
2022-10-05T16:39:41.935Z,43.99
2022-10-05T16:42:17.909Z,43.87
2022-10-05T16:44:54.429Z,44.55
2022-10-05T16:47:42.204Z,44.13
2022-10-05T16:50:18.710Z,44.09
2022-10-05T16:52:54.629Z,44.57
2022-10-05T16:55:30.296Z,44.17
2022-10-05T16:58:02.255Z,44.29
2022-10-05T17:00:40.863Z,44.96
2022-10-05T17:03:19.577Z,44.74
2022-10-05T17:05:57.396Z,45.33
2022-10-05T17:08:38.994Z,45.51
2022-10-05T17:11:17.017Z,45.50
2022-10-05T17:14:03.427Z,46.07
2022-10-05T17:16:41.654Z,46.12
2022-10-05T17:19:19.312Z,45.90
2022-10-05T17:21:55.908Z,46.42
2022-10-05T17:24:30.347Z,46.52
2022-10-05T17:27:03.707Z,47.04
2022-10-05T17:29:47.645Z,46.97
2022-10-05T17:32:36.248Z,46.20
2022-10-05T17:35:20.223Z,45.89
2022-10-05T17:38:14.313Z,46.16
2022-10-05T17:40:58.697Z,45.52
2022-10-05T17:43:30.765Z,45.79
2022-10-05T17:46:01.611Z,44.69
2022-10-05T17:48:59.620Z,45.11
2022-10-05T17:52:04.033Z,44.66
2022-10-05T17:55:12.069Z,44.84
2022-10-05T17:57:42.011Z,44.74
2022-10-05T18:00:32.553Z,45.24
2022-10-05T18:03:22.092Z,44.90
2022-10-05T18:06:22.023Z,45.35
2022-10-05T18:08:51.644Z,45.22
2022-10-05T18:11:39.064Z,45.39
2022-10-05T18:14:17.592Z,45.41
2022-10-05T18:17:00.171Z,45.75
2022-10-05T18:19:32.344Z,45.84
2022-10-05T18:22:04.391Z,45.77
2022-10-05T18:24:55.813Z,45.47
2022-10-05T18:27:50.931Z,46.18
2022-10-05T18:30:22.037Z,46.01
2022-10-05T18:33:08.787Z,46.32
2022-10-05T18:35:46.771Z,46.61
2022-10-05T18:38:25.919Z,46.54
2022-10-05T18:41:00.808Z,46.69
2022-10-05T18:43:36.371Z,46.90
2022-10-05T18:46:17.978Z,46.77
2022-10-05T18:48:54.213Z,46.74
2022-10-05T18:51:28.500Z,46.63
2022-10-05T18:54:03.169Z,46.77
2022-10-05T18:56:37.359Z,46.99
2022-10-05T18:59:19.163Z,47.36
2022-10-05T19:01:55.130Z,47.04
2022-10-05T19:04:29.464Z,47.15
2022-10-05T19:07:06.184Z,46.91
2022-10-05T19:09:48.049Z,47.78
2022-10-05T19:12:22.807Z,47.55
2022-10-05T19:15:00.503Z,47.69
2022-10-05T19:17:48.733Z,47.45
2022-10-05T19:20:22.080Z,47.92
2022-10-05T19:23:02.318Z,47.89
2022-10-05T19:25:38.514Z,47.65
2022-10-05T19:28:15.387Z,47.97
2022-10-05T19:30:51.859Z,47.86
2022-10-05T19:33:29.129Z,48.23
2022-10-05T19:36:05.506Z,48.35
2022-10-05T19:38:40.426Z,48.11
2022-10-05T19:41:14.573Z,48.43
2022-10-05T19:43:54.385Z,48.52
2022-10-05T19:46:33.186Z,48.31
2022-10-05T19:49:04.079Z,48.66
2022-10-05T19:51:37.071Z,48.51
2022-10-05T19:54:14.637Z,48.53
2022-10-05T19:56:49.562Z,48.83
2022-10-05T19:59:19.896Z,49.49
2022-10-05T20:01:52.085Z,49.25
2022-10-05T20:04:32.775Z,49.29
2022-10-05T20:07:03.044Z,49.84
2022-10-05T20:09:47.363Z,49.79
2022-10-05T20:12:17.169Z,49.87
2022-10-05T20:15:01.005Z,50.05
2022-10-05T20:17:49.494Z,50.01
2022-10-05T20:20:23.482Z,50.89
2022-10-05T20:22:53.076Z,50.87
2022-10-05T20:25:32.409Z,50.89
2022-10-05T20:28:03.031Z,50.79
2022-10-05T20:30:33.835Z,51.47
2022-10-05T20:33:11.611Z,51.58
2022-10-05T20:35:41.231Z,51.39
2022-10-05T20:38:11.132Z,51.36
2022-10-05T20:40:40.636Z,51.85
2022-10-05T20:43:10.191Z,51.65
2022-10-05T20:45:43.105Z,52.21
2022-10-05T20:48:15.848Z,52.10
2022-10-05T20:50:45.471Z,52.54
2022-10-05T20:53:15.023Z,52.36
2022-10-05T20:55:44.745Z,52.68
2022-10-05T20:58:14.419Z,52.81
2022-10-05T21:01:01.268Z,52.56
2022-10-05T21:03:32.279Z,52.47
2022-10-05T21:06:01.755Z,52.45
2022-10-05T21:08:31.762Z,52.50
2022-10-05T21:11:01.562Z,52.81
2022-10-05T21:13:31.353Z,53.12
2022-10-05T21:16:01.342Z,53.51
2022-10-05T21:18:33.514Z,53.32
2022-10-05T21:21:03.326Z,53.45
2022-10-05T21:23:32.856Z,53.29
2022-10-05T21:26:02.934Z,53.88
2022-10-05T21:28:33.505Z,53.20
2022-10-05T21:31:03.114Z,53.05
2022-10-05T21:33:34.026Z,53.27
2022-10-05T21:36:04.068Z,52.55
2022-10-05T21:38:33.693Z,52.84
2022-10-05T21:41:03.239Z,53.08
2022-10-05T21:43:32.768Z,52.95
2022-10-05T21:46:02.579Z,53.26
2022-10-05T21:48:33.028Z,53.11
2022-10-05T21:51:04.615Z,53.27
2022-10-05T21:53:36.859Z,53.48
2022-10-05T21:56:08.908Z,53.66
2022-10-05T21:58:38.561Z,53.64
2022-10-05T22:01:08.192Z,53.86
2022-10-05T22:03:37.939Z,53.85
2022-10-05T22:06:09.072Z,53.82
2022-10-05T22:08:38.568Z,54.17
2022-10-05T22:11:12.459Z,54.43
2022-10-05T22:13:44.500Z,54.67
2022-10-05T22:16:15.194Z,54.87
2022-10-05T22:18:45.231Z,54.94
2022-10-05T22:21:16.269Z,54.67
2022-10-05T22:23:46.727Z,55.34
2022-10-05T22:26:17.711Z,55.00
2022-10-05T22:28:48.505Z,55.34
2022-10-05T22:31:19.031Z,55.18
2022-10-05T22:33:48.716Z,54.61
2022-10-05T22:36:19.811Z,55.21
2022-10-05T22:38:49.470Z,55.21
2022-10-05T22:41:19.459Z,55.07
2022-10-05T22:43:50.817Z,55.46
2022-10-05T22:46:20.467Z,55.47
2022-10-05T22:48:50.227Z,55.87
2022-10-05T22:51:21.130Z,55.44
2022-10-05T22:53:50.803Z,55.70
2022-10-05T22:56:20.671Z,55.96
2022-10-05T22:58:51.046Z,55.99
2022-10-05T23:01:21.103Z,56.36
2022-10-05T23:03:50.718Z,57.12
2022-10-05T23:06:21.800Z,56.96
2022-10-05T23:08:51.353Z,56.93
2022-10-05T23:11:23.676Z,57.29
2022-10-05T23:13:55.728Z,57.20
2022-10-05T23:16:26.731Z,57.38
2022-10-05T23:18:56.546Z,57.79
2022-10-05T23:21:29.105Z,57.69
2022-10-05T23:23:58.704Z,58.00
2022-10-05T23:26:28.483Z,58.47
2022-10-05T23:28:58.012Z,58.25
2022-10-05T23:31:29.832Z,58.24
2022-10-05T23:33:59.695Z,58.16
2022-10-05T23:36:32.396Z,58.41
2022-10-05T23:39:02.065Z,58.09
2022-10-05T23:41:31.580Z,58.16
2022-10-05T23:44:01.231Z,59.12
2022-10-05T23:46:30.763Z,58.92
2022-10-05T23:49:00.277Z,58.56
2022-10-05T23:51:31.327Z,59.19
2022-10-05T23:54:00.864Z,59.22
2022-10-05T23:56:31.466Z,59.27
2022-10-05T23:59:01.037Z,58.95
